No particular awareness of the weather is required.    There are no Weather-warnings


Meteo18 Weather Cam more information Meteo18 Weather Cam


Thunder radar more information blitzortung!


Rain radar more information rain snow radar


Visit our other weather sites:

Template documentation
and downloads

And another site



Weather Underground History page Text

Daily Summary for November 14, 2017 Units:  Both    English   Metric
« Previous Day
Next Day »
Daily Weekly Monthly Yearly Custom
  High: Low: Average:
Temperature: 45 °F /  7.2 °C 34.7 °F /  1.5 °C 39.9 °F /  4.4 °C
Dew Point: 40.5 °F /  4.7 °C 33.4 °F /  0.8 °C 37.2 °F /  2.9 °C
Humidity: 96 % 82 % 90 %
Wind Speed: 9 mph /  14.5 km/h - 2.2 mph /  3.6 km/h
Wind Gust: 14 mph /  22.5 km/h - -
Wind:- - South
Pressure: 30.4 in /  1028.3 hPa 30.3 in /  1025.3 hPa -
Precipitation: 0 in /  0.0 mm    
Historical Graphs
 
 
Tabular Data for November 14, 2017
Time Temperature Dew Point Pressure Wind Wind Speed Wind Gust Humidity Rainfall Rate (Hourly)
00:02 39.7 °F /  4.3 °C 37 °F /  2.8 °C 30.3 in /  1025.6 hPa North 4 mph /  6.4 km/h 13 mph /  20.9 km/h 90 % 0 in /  0.0 mm
00:12 39.7 °F /  4.3 °C 36.7 °F /  2.6 °C 30.3 in /  1025.3 hPa NNW 5 mph /  8.0 km/h 13 mph /  20.9 km/h 89 % 0 in /  0.0 mm
00:17 39.7 °F /  4.3 °C 37 °F /  2.8 °C 30.3 in /  1025.3 hPa NNE 6 mph /  9.7 km/h 13 mph /  20.9 km/h 90 % 0 in /  0.0 mm
00:22 39.9 °F /  4.4 °C 37.2 °F /  2.9 °C 30.3 in /  1025.3 hPa North 5 mph /  8.0 km/h 13 mph /  20.9 km/h 90 % 0 in /  0.0 mm
00:27 39.9 °F /  4.4 °C 37.2 °F /  2.9 °C 30.3 in /  1025.3 hPa NNW 9 mph /  14.5 km/h 14 mph /  22.5 km/h 90 % 0 in /  0.0 mm
00:32 39.9 °F /  4.4 °C 36.9 °F /  2.7 °C 30.3 in /  1025.3 hPa West 4 mph /  6.4 km/h 14 mph /  22.5 km/h 89 % 0 in /  0.0 mm
00:42 39.7 °F /  4.3 °C 37 °F /  2.8 °C 30.3 in /  1025.6 hPa NNW 6 mph /  9.7 km/h 13 mph /  20.9 km/h 90 % 0 in /  0.0 mm
01:02 39 °F /  3.9 °C 36.3 °F /  2.4 °C 30.3 in /  1025.6 hPa NNE 5 mph /  8.0 km/h 14 mph /  22.5 km/h 90 % 0 in /  0.0 mm
01:12 38.7 °F /  3.7 °C 36.3 °F /  2.4 °C 30.3 in /  1025.6 hPa NE 3 mph /  4.8 km/h 10 mph /  16.1 km/h 91 % 0 in /  0.0 mm
01:17 38.7 °F /  3.7 °C 36.3 °F /  2.4 °C 30.3 in /  1025.6 hPa NW 9 mph /  14.5 km/h 10 mph /  16.1 km/h 91 % 0 in /  0.0 mm
01:22 38.7 °F /  3.7 °C 36.3 °F /  2.4 °C 30.3 in /  1025.6 hPa North 3 mph /  4.8 km/h 10 mph /  16.1 km/h 91 % 0 in /  0.0 mm
01:32 38.8 °F /  3.8 °C 36.5 °F /  2.5 °C 30.3 in /  1025.6 hPa North 2 mph /  3.2 km/h 10 mph /  16.1 km/h 91 % 0 in /  0.0 mm
01:37 38.8 °F /  3.8 °C 36.5 °F /  2.5 °C 30.3 in /  1025.6 hPa NNW 4 mph /  6.4 km/h 9 mph /  14.5 km/h 91 % 0 in /  0.0 mm
01:47 38.8 °F /  3.8 °C 36.5 °F /  2.5 °C 30.3 in /  1025.6 hPa NNW 3 mph /  4.8 km/h 9 mph /  14.5 km/h 91 % 0 in /  0.0 mm
01:52 38.7 °F /  3.7 °C 36.3 °F /  2.4 °C 30.3 in /  1025.6 hPa NNE 8 mph /  12.9 km/h 9 mph /  14.5 km/h 91 % 0 in /  0.0 mm
01:57 38.7 °F /  3.7 °C 36.5 °F /  2.5 °C 30.3 in /  1026.0 hPa NNE 7 mph /  11.3 km/h 9 mph /  14.5 km/h 92 % 0 in /  0.0 mm
02:02 38.7 °F /  3.7 °C 36.3 °F /  2.4 °C 30.3 in /  1026.0 hPa NNE 3 mph /  4.8 km/h 9 mph /  14.5 km/h 91 % 0 in /  0.0 mm
02:12 38.5 °F /  3.6 °C 36.1 °F /  2.3 °C 30.3 in /  1026.0 hPa Calm   9 mph /  14.5 km/h 91 % 0 in /  0.0 mm
02:17 38.3 °F /  3.5 °C 36 °F /  2.2 °C 30.3 in /  1026.0 hPa ENE 1 mph /  1.6 km/h 5 mph /  8.0 km/h 91 % 0 in /  0.0 mm
02:22 37.9 °F /  3.3 °C 35.6 °F /  2.0 °C 30.3 in /  1026.3 hPa East 2 mph /  3.2 km/h 4 mph /  6.4 km/h 91 % 0 in /  0.0 mm
02:27 37.8 °F /  3.2 °C 35.6 °F /  2.0 °C 30.3 in /  1026.3 hPa Calm   2 mph /  3.2 km/h 92 % 0 in /  0.0 mm
02:32 37.9 °F /  3.3 °C 35.8 °F /  2.1 °C 30.3 in /  1026.3 hPa Calm   2 mph /  3.2 km/h 92 % 0 in /  0.0 mm
02:42 37.9 °F /  3.3 °C 36.1 °F /  2.3 °C 30.3 in /  1026.3 hPa Calm   2 mph /  3.2 km/h 93 % 0 in /  0.0 mm
02:47 37.9 °F /  3.3 °C 36.1 °F /  2.3 °C 30.3 in /  1026.3 hPa Calm   2 mph /  3.2 km/h 93 % 0 in /  0.0 mm
02:52 38.1 °F /  3.4 °C 36.3 °F /  2.4 °C 30.3 in /  1026.3 hPa Calm   3 mph /  4.8 km/h 93 % 0 in /  0.0 mm
02:57 38.1 °F /  3.4 °C 36.3 °F /  2.4 °C 30.3 in /  1026.3 hPa NNE 1 mph /  1.6 km/h 4 mph /  6.4 km/h 93 % 0 in /  0.0 mm
03:02 38.5 °F /  3.6 °C 36.7 °F /  2.6 °C 30.3 in /  1026.3 hPa NNE 3 mph /  4.8 km/h 4 mph /  6.4 km/h 93 % 0 in /  0.0 mm
03:12 38.7 °F /  3.7 °C 36.9 °F /  2.7 °C 30.3 in /  1026.3 hPa NNE 5 mph /  8.0 km/h 6 mph /  9.7 km/h 93 % 0 in /  0.0 mm
03:17 38.7 °F /  3.7 °C 36.9 °F /  2.7 °C 30.3 in /  1026.3 hPa NNE 1 mph /  1.6 km/h 9 mph /  14.5 km/h 93 % 0 in /  0.0 mm
03:22 38.7 °F /  3.7 °C 36.9 °F /  2.7 °C 30.3 in /  1026.3 hPa NNE 5 mph /  8.0 km/h 9 mph /  14.5 km/h 93 % 0 in /  0.0 mm
03:32 38.7 °F /  3.7 °C 36.9 °F /  2.7 °C 30.3 in /  1026.3 hPa NNW 2 mph /  3.2 km/h 11 mph /  17.7 km/h 93 % 0 in /  0.0 mm
03:42 37.9 °F /  3.3 °C 36.1 °F /  2.3 °C 30.3 in /  1026.3 hPa NNE 3 mph /  4.8 km/h 11 mph /  17.7 km/h 93 % 0 in /  0.0 mm
03:47 37.9 °F /  3.3 °C 36.1 °F /  2.3 °C 30.3 in /  1026.3 hPa NNE 3 mph /  4.8 km/h 7 mph /  11.3 km/h 93 % 0 in /  0.0 mm
03:52 37.9 °F /  3.3 °C 36.1 °F /  2.3 °C 30.3 in /  1026.3 hPa NNE 3 mph /  4.8 km/h 7 mph /  11.3 km/h 93 % 0 in /  0.0 mm
09:07 38.5 °F /  3.6 °C 37.2 °F /  2.9 °C 30.4 in /  1027.7 hPa NE 3 mph /  4.8 km/h -998.7 mph /  -1607.4 km/h 95 % 0 in /  0 mm
09:12 38.5 °F /  3.6 °C 37.2 °F /  2.9 °C 30.4 in /  1027.7 hPa NNE 3 mph /  4.8 km/h 5 mph /  8.0 km/h 95 % 0 in /  0.0 mm
09:17 38.5 °F /  3.6 °C 37.2 °F /  2.9 °C 30.4 in /  1027.7 hPa NNE 1 mph /  1.6 km/h 5 mph /  8.0 km/h 95 % 0 in /  0.0 mm
09:22 38.5 °F /  3.6 °C 36.9 °F /  2.7 °C 30.4 in /  1028.0 hPa NE 1 mph /  1.6 km/h 5 mph /  8.0 km/h 94 % 0 in /  0.0 mm
09:27 38.7 °F /  3.7 °C 37.4 °F /  3.0 °C 30.4 in /  1028.0 hPa Calm   5 mph /  8.0 km/h 95 % 0 in /  0.0 mm
09:32 38.7 °F /  3.7 °C 37 °F /  2.8 °C 30.4 in /  1028.0 hPa NNE 1 mph /  1.6 km/h 5 mph /  8.0 km/h 94 % 0 in /  0.0 mm
09:42 38.7 °F /  3.7 °C 37 °F /  2.8 °C 30.4 in /  1028.0 hPa North 2 mph /  3.2 km/h 3 mph /  4.8 km/h 94 % 0 in /  0.0 mm
09:47 38.8 °F /  3.8 °C 37.2 °F /  2.9 °C 30.4 in /  1028.0 hPa Calm   3 mph /  4.8 km/h 94 % 0 in /  0.0 mm
09:52 38.8 °F /  3.8 °C 37.2 °F /  2.9 °C 30.4 in /  1028.0 hPa NNE 2 mph /  3.2 km/h 3 mph /  4.8 km/h 94 % 0 in /  0.0 mm
09:57 38.8 °F /  3.8 °C 37.2 °F /  2.9 °C 30.4 in /  1028.0 hPa NNE 1 mph /  1.6 km/h 3 mph /  4.8 km/h 94 % 0 in /  0.0 mm
10:02 38.8 °F /  3.8 °C 37.2 °F /  2.9 °C 30.4 in /  1028.0 hPa NE 2 mph /  3.2 km/h 3 mph /  4.8 km/h 94 % 0 in /  0.0 mm
10:07 39 °F /  3.9 °C 37.4 °F /  3.0 °C 30.4 in /  1028.3 hPa NE 3 mph /  4.8 km/h 3 mph /  4.8 km/h 94 % 0 in /  0.0 mm
10:12 39 °F /  3.9 °C 37.4 °F /  3.0 °C 30.4 in /  1028.3 hPa Calm   3 mph /  4.8 km/h 94 % 0 in /  0.0 mm
10:17 39 °F /  3.9 °C 37.4 °F /  3.0 °C 30.4 in /  1028.3 hPa Calm   4 mph /  6.4 km/h 94 % 0 in /  0.0 mm
10:22 39.4 °F /  4.1 °C 37.8 °F /  3.2 °C 30.4 in /  1028.0 hPa ENE 1 mph /  1.6 km/h 4 mph /  6.4 km/h 94 % 0 in /  0.0 mm
10:32 39.4 °F /  4.1 °C 37.8 °F /  3.2 °C 30.4 in /  1028.0 hPa North 1 mph /  1.6 km/h 3 mph /  4.8 km/h 94 % 0 in /  0.0 mm
10:37 39.4 °F /  4.1 °C 37.6 °F /  3.1 °C 30.4 in /  1028.0 hPa NE 2 mph /  3.2 km/h 4 mph /  6.4 km/h 93 % 0 in /  0.0 mm
10:42 39.6 °F /  4.2 °C 37.8 °F /  3.2 °C 30.4 in /  1028.0 hPa NNE 1 mph /  1.6 km/h 4 mph /  6.4 km/h 93 % 0 in /  0.0 mm
10:47 39.6 °F /  4.2 °C 37.8 °F /  3.2 °C 30.4 in /  1028.0 hPa Calm   4 mph /  6.4 km/h 93 % 0 in /  0.0 mm
10:52 39.7 °F /  4.3 °C 37.9 °F /  3.3 °C 30.4 in /  1028.0 hPa NNW 3 mph /  4.8 km/h 4 mph /  6.4 km/h 93 % 0 in /  0.0 mm
10:57 39.7 °F /  4.3 °C 37.9 °F /  3.3 °C 30.4 in /  1028.3 hPa NE 2 mph /  3.2 km/h 4 mph /  6.4 km/h 93 % 0 in /  0.0 mm
11:02 39.7 °F /  4.3 °C 37.9 °F /  3.3 °C 30.4 in /  1028.3 hPa NW 1 mph /  1.6 km/h 4 mph /  6.4 km/h 93 % 0 in /  0.0 mm
11:07 39.9 °F /  4.4 °C 38.1 °F /  3.4 °C 30.4 in /  1028.3 hPa NNW 1 mph /  1.6 km/h 4 mph /  6.4 km/h 93 % 0 in /  0.0 mm
11:12 39.9 °F /  4.4 °C 37.8 °F /  3.2 °C 30.4 in /  1028.3 hPa Calm   4 mph /  6.4 km/h 92 % 0 in /  0.0 mm
11:17 39.9 °F /  4.4 °C 37.8 °F /  3.2 °C 30.4 in /  1028.3 hPa North 1 mph /  1.6 km/h 5 mph /  8.0 km/h 92 % 0 in /  0.0 mm
11:22 40.3 °F /  4.6 °C 38.1 °F /  3.4 °C 30.4 in /  1028.3 hPa NW 2 mph /  3.2 km/h 5 mph /  8.0 km/h 92 % 0 in /  0.0 mm
11:32 40.8 °F /  4.9 °C 38.7 °F /  3.7 °C 30.4 in /  1028.3 hPa Calm   5 mph /  8.0 km/h 92 % 0 in /  0.0 mm
11:42 41.4 °F /  5.2 °C 39 °F /  3.9 °C 30.4 in /  1028.0 hPa North 2 mph /  3.2 km/h 4 mph /  6.4 km/h 91 % 0 in /  0.0 mm
11:57 41.7 °F /  5.4 °C 38.7 °F /  3.7 °C 30.4 in /  1028.0 hPa NNW 5 mph /  8.0 km/h 6 mph /  9.7 km/h 89 % 0 in /  0.0 mm
12:02 42.1 °F /  5.6 °C 39.4 °F /  4.1 °C 30.4 in /  1027.7 hPa North 2 mph /  3.2 km/h 6 mph /  9.7 km/h 90 % 0 in /  0.0 mm
12:07 42.3 °F /  5.7 °C 39.2 °F /  4.0 °C 30.4 in /  1027.7 hPa NW 2 mph /  3.2 km/h 6 mph /  9.7 km/h 89 % 0 in /  0.0 mm
12:12 42.3 °F /  5.7 °C 39 °F /  3.9 °C 30.4 in /  1027.7 hPa NNW 1 mph /  1.6 km/h 6 mph /  9.7 km/h 88 % 0 in /  0.0 mm
12:17 42.4 °F /  5.8 °C 39.2 °F /  4.0 °C 30.4 in /  1027.7 hPa NW 3 mph /  4.8 km/h 7 mph /  11.3 km/h 88 % 0 in /  0.0 mm
12:32 43.2 °F /  6.2 °C 39.2 °F /  4.0 °C 30.4 in /  1027.7 hPa NNW 5 mph /  8.0 km/h 8 mph /  12.9 km/h 86 % 0 in /  0.0 mm
12:42 43.5 °F /  6.4 °C 39.9 °F /  4.4 °C 30.4 in /  1027.7 hPa North 4 mph /  6.4 km/h 8 mph /  12.9 km/h 87 % 0 in /  0.0 mm
12:47 43.7 °F /  6.5 °C 39.7 °F /  4.3 °C 30.4 in /  1027.7 hPa NNE 3 mph /  4.8 km/h 7 mph /  11.3 km/h 86 % 0 in /  0.0 mm
12:52 43.5 °F /  6.4 °C 39.6 °F /  4.2 °C 30.4 in /  1027.7 hPa NNW 2 mph /  3.2 km/h 7 mph /  11.3 km/h 86 % 0 in /  0.0 mm
12:57 44.1 °F /  6.7 °C 40.5 °F /  4.7 °C 30.4 in /  1027.7 hPa NNW 4 mph /  6.4 km/h 7 mph /  11.3 km/h 87 % 0 in /  0.0 mm
13:02 44.2 °F /  6.8 °C 40.3 °F /  4.6 °C 30.4 in /  1027.7 hPa WNW 5 mph /  8.0 km/h 7 mph /  11.3 km/h 86 % 0 in /  0.0 mm
13:12 44.2 °F /  6.8 °C 40.1 °F /  4.5 °C 30.4 in /  1027.7 hPa NNE 5 mph /  8.0 km/h 7 mph /  11.3 km/h 85 % 0 in /  0.0 mm
13:17 44.2 °F /  6.8 °C 40.1 °F /  4.5 °C 30.4 in /  1027.7 hPa NW 5 mph /  8.0 km/h 8 mph /  12.9 km/h 85 % 0 in /  0.0 mm
13:22 44.2 °F /  6.8 °C 40.1 °F /  4.5 °C 30.4 in /  1027.7 hPa North 4 mph /  6.4 km/h 8 mph /  12.9 km/h 85 % 0 in /  0.0 mm
13:27 44.4 °F /  6.9 °C 40.3 °F /  4.6 °C 30.4 in /  1027.7 hPa NNW 2 mph /  3.2 km/h 8 mph /  12.9 km/h 85 % 0 in /  0.0 mm
13:32 44.6 °F /  7.0 °C 40.1 °F /  4.5 °C 30.4 in /  1027.7 hPa North 2 mph /  3.2 km/h 9 mph /  14.5 km/h 84 % 0 in /  0.0 mm
13:37 44.4 °F /  6.9 °C 39.9 °F /  4.4 °C 30.4 in /  1027.7 hPa NW 6 mph /  9.7 km/h 9 mph /  14.5 km/h 84 % 0 in /  0.0 mm
13:42 44.4 °F /  6.9 °C 40.3 °F /  4.6 °C 30.4 in /  1027.7 hPa NW 6 mph /  9.7 km/h 10 mph /  16.1 km/h 85 % 0 in /  0.0 mm
13:47 44.4 °F /  6.9 °C 39.6 °F /  4.2 °C 30.4 in /  1027.7 hPa NNW 3 mph /  4.8 km/h 10 mph /  16.1 km/h 83 % 0 in /  0.0 mm
13:52 44.6 °F /  7.0 °C 40.1 °F /  4.5 °C 30.4 in /  1027.7 hPa NNE 3 mph /  4.8 km/h 10 mph /  16.1 km/h 84 % 0 in /  0.0 mm
13:57 44.4 °F /  6.9 °C 39.9 °F /  4.4 °C 30.4 in /  1027.7 hPa NNW 4 mph /  6.4 km/h 8 mph /  12.9 km/h 84 % 0 in /  0.0 mm
14:02 44.4 °F /  6.9 °C 39.9 °F /  4.4 °C 30.3 in /  1027.3 hPa West 3 mph /  4.8 km/h 8 mph /  12.9 km/h 84 % 0 in /  0.0 mm
14:07 44.8 °F /  7.1 °C 40.3 °F /  4.6 °C 30.3 in /  1027.3 hPa WNW 1 mph /  1.6 km/h 8 mph /  12.9 km/h 84 % 0 in /  0.0 mm
14:12 45 °F /  7.2 °C 40.5 °F /  4.7 °C 30.3 in /  1027.3 hPa NNW 6 mph /  9.7 km/h 8 mph /  12.9 km/h 84 % 0 in /  0.0 mm
14:17 44.4 °F /  6.9 °C 39.6 °F /  4.2 °C 30.3 in /  1027.3 hPa NNE 4 mph /  6.4 km/h 8 mph /  12.9 km/h 83 % 0 in /  0.0 mm
14:22 44.2 °F /  6.8 °C 39.7 °F /  4.3 °C 30.3 in /  1027.3 hPa NW 2 mph /  3.2 km/h 11 mph /  17.7 km/h 84 % 0 in /  0.0 mm
14:32 44.4 °F /  6.9 °C 39.9 °F /  4.4 °C 30.3 in /  1027.0 hPa North 3 mph /  4.8 km/h 11 mph /  17.7 km/h 84 % 0 in /  0.0 mm
14:37 44.8 °F /  7.1 °C 40.3 °F /  4.6 °C 30.3 in /  1027.0 hPa North 5 mph /  8.0 km/h 11 mph /  17.7 km/h 84 % 0 in /  0.0 mm
14:42 44.8 °F /  7.1 °C 39.9 °F /  4.4 °C 30.3 in /  1027.3 hPa NNE 4 mph /  6.4 km/h 11 mph /  17.7 km/h 83 % 0 in /  0.0 mm
14:47 44.8 °F /  7.1 °C 39.6 °F /  4.2 °C 30.3 in /  1027.3 hPa NE 4 mph /  6.4 km/h 8 mph /  12.9 km/h 82 % 0 in /  0.0 mm
14:52 45 °F /  7.2 °C 39.7 °F /  4.3 °C 30.3 in /  1027.3 hPa NNE 5 mph /  8.0 km/h 8 mph /  12.9 km/h 82 % 0 in /  0.0 mm
14:57 44.8 °F /  7.1 °C 39.6 °F /  4.2 °C 30.3 in /  1027.3 hPa NNW 6 mph /  9.7 km/h 7 mph /  11.3 km/h 82 % 0 in /  0.0 mm
15:02 45 °F /  7.2 °C 40.1 °F /  4.5 °C 30.3 in /  1027.3 hPa NNE 7 mph /  11.3 km/h 9 mph /  14.5 km/h 83 % 0 in /  0.0 mm
15:12 44.8 °F /  7.1 °C 39.9 °F /  4.4 °C 30.4 in /  1027.7 hPa NNW 4 mph /  6.4 km/h 9 mph /  14.5 km/h 83 % 0 in /  0.0 mm
15:17 44.6 °F /  7.0 °C 39.7 °F /  4.3 °C 30.4 in /  1027.7 hPa NNW 5 mph /  8.0 km/h 8 mph /  12.9 km/h 83 % 0 in /  0.0 mm
15:22 44.4 °F /  6.9 °C 39.6 °F /  4.2 °C 30.4 in /  1027.7 hPa NNE 7 mph /  11.3 km/h 8 mph /  12.9 km/h 83 % 0 in /  0.0 mm
15:27 44.4 °F /  6.9 °C 39.9 °F /  4.4 °C 30.4 in /  1027.7 hPa North 4 mph /  6.4 km/h 8 mph /  12.9 km/h 84 % 0 in /  0.0 mm
15:32 44.8 °F /  7.1 °C 39.9 °F /  4.4 °C 30.4 in /  1027.7 hPa NE 5 mph /  8.0 km/h 8 mph /  12.9 km/h 83 % 0 in /  0.0 mm
15:37 44.8 °F /  7.1 °C 40.3 °F /  4.6 °C 30.4 in /  1027.7 hPa NNE 2 mph /  3.2 km/h 7 mph /  11.3 km/h 84 % 0 in /  0.0 mm
15:42 44.8 °F /  7.1 °C 40.3 °F /  4.6 °C 30.3 in /  1027.3 hPa NNE 4 mph /  6.4 km/h 7 mph /  11.3 km/h 84 % 0 in /  0.0 mm
15:47 44.4 °F /  6.9 °C 39.6 °F /  4.2 °C 30.3 in /  1027.3 hPa NW 1 mph /  1.6 km/h 7 mph /  11.3 km/h 83 % 0 in /  0.0 mm
15:52 44.6 °F /  7.0 °C 40.1 °F /  4.5 °C 30.3 in /  1027.3 hPa NNW 3 mph /  4.8 km/h 8 mph /  12.9 km/h 84 % 0 in /  0.0 mm
15:57 44.4 °F /  6.9 °C 39.9 °F /  4.4 °C 30.3 in /  1027.3 hPa NW 2 mph /  3.2 km/h 8 mph /  12.9 km/h 84 % 0 in /  0.0 mm
16:02 44.4 °F /  6.9 °C 39.9 °F /  4.4 °C 30.3 in /  1027.3 hPa North 3 mph /  4.8 km/h 8 mph /  12.9 km/h 84 % 0 in /  0.0 mm
16:07 44.4 °F /  6.9 °C 39.9 °F /  4.4 °C 30.3 in /  1027.3 hPa NNW 1 mph /  1.6 km/h 8 mph /  12.9 km/h 84 % 0 in /  0.0 mm
16:12 44.2 °F /  6.8 °C 39.7 °F /  4.3 °C 30.3 in /  1027.3 hPa NNW 2 mph /  3.2 km/h 7 mph /  11.3 km/h 84 % 0 in /  0.0 mm
16:17 44.2 °F /  6.8 °C 39.7 °F /  4.3 °C 30.3 in /  1027.3 hPa NNW 2 mph /  3.2 km/h 7 mph /  11.3 km/h 84 % 0 in /  0.0 mm
16:22 44.2 °F /  6.8 °C 39.7 °F /  4.3 °C 30.3 in /  1027.3 hPa NNE 2 mph /  3.2 km/h 7 mph /  11.3 km/h 84 % 0 in /  0.0 mm
16:27 44.1 °F /  6.7 °C 39.6 °F /  4.2 °C 30.3 in /  1027.3 hPa NNE 2 mph /  3.2 km/h 6 mph /  9.7 km/h 84 % 0 in /  0.0 mm
16:37 44.1 °F /  6.7 °C 39.6 °F /  4.2 °C 30.3 in /  1027.3 hPa NNE 4 mph /  6.4 km/h 5 mph /  8.0 km/h 84 % 0 in /  0.0 mm
16:42 43.7 °F /  6.5 °C 39.2 °F /  4.0 °C 30.3 in /  1027.3 hPa NNE 2 mph /  3.2 km/h 4 mph /  6.4 km/h 84 % 0 in /  0.0 mm
16:47 43.3 °F /  6.3 °C 39.2 °F /  4.0 °C 30.3 in /  1027.3 hPa North 2 mph /  3.2 km/h 4 mph /  6.4 km/h 85 % 0 in /  0.0 mm
16:52 43.2 °F /  6.2 °C 39.2 °F /  4.0 °C 30.3 in /  1027.3 hPa Calm   4 mph /  6.4 km/h 86 % 0 in /  0.0 mm
16:57 43 °F /  6.1 °C 39 °F /  3.9 °C 30.4 in /  1027.7 hPa North 2 mph /  3.2 km/h 3 mph /  4.8 km/h 86 % 0 in /  0.0 mm
17:02 42.6 °F /  5.9 °C 38.7 °F /  3.7 °C 30.4 in /  1027.7 hPa North 1 mph /  1.6 km/h 3 mph /  4.8 km/h 86 % 0 in /  0.0 mm
17:07 42.3 °F /  5.7 °C 38.3 °F /  3.5 °C 30.4 in /  1027.7 hPa NNE 1 mph /  1.6 km/h 3 mph /  4.8 km/h 86 % 0 in /  0.0 mm
17:12 41.9 °F /  5.5 °C 38.3 °F /  3.5 °C 30.4 in /  1027.7 hPa Calm   4 mph /  6.4 km/h 87 % 0 in /  0.0 mm
17:17 41.5 °F /  5.3 °C 37.9 °F /  3.3 °C 30.4 in /  1027.7 hPa NNW 1 mph /  1.6 km/h 4 mph /  6.4 km/h 87 % 0 in /  0.0 mm
17:22 41.4 °F /  5.2 °C 38.1 °F /  3.4 °C 30.4 in /  1027.7 hPa NNE 2 mph /  3.2 km/h 4 mph /  6.4 km/h 88 % 0 in /  0.0 mm
17:32 40.6 °F /  4.8 °C 37.4 °F /  3.0 °C 30.4 in /  1027.7 hPa Calm   2 mph /  3.2 km/h 88 % 0 in /  0.0 mm
17:37 40.5 °F /  4.7 °C 37.4 °F /  3.0 °C 30.4 in /  1027.7 hPa North 1 mph /  1.6 km/h 3 mph /  4.8 km/h 89 % 0 in /  0.0 mm
17:42 40.3 °F /  4.6 °C 37.6 °F /  3.1 °C 30.4 in /  1027.7 hPa North 1 mph /  1.6 km/h 3 mph /  4.8 km/h 90 % 0 in /  0.0 mm
17:47 40.1 °F /  4.5 °C 37.4 °F /  3.0 °C 30.4 in /  1027.7 hPa North 2 mph /  3.2 km/h 3 mph /  4.8 km/h 90 % 0 in /  0.0 mm
17:52 40.1 °F /  4.5 °C 37.4 °F /  3.0 °C 30.4 in /  1027.7 hPa NNW 2 mph /  3.2 km/h 3 mph /  4.8 km/h 90 % 0 in /  0.0 mm
18:02 40.3 °F /  4.6 °C 37.6 °F /  3.1 °C 30.4 in /  1027.7 hPa NNW 3 mph /  4.8 km/h 5 mph /  8.0 km/h 90 % 0 in /  0.0 mm
18:12 39.9 °F /  4.4 °C 37.2 °F /  2.9 °C 30.4 in /  1027.7 hPa NW 2 mph /  3.2 km/h 5 mph /  8.0 km/h 90 % 0 in /  0.0 mm
18:17 39.9 °F /  4.4 °C 37.6 °F /  3.1 °C 30.4 in /  1027.7 hPa NNW 2 mph /  3.2 km/h 5 mph /  8.0 km/h 91 % 0 in /  0.0 mm
18:22 39.7 °F /  4.3 °C 37.4 °F /  3.0 °C 30.4 in /  1027.7 hPa North 1 mph /  1.6 km/h 5 mph /  8.0 km/h 91 % 0 in /  0.0 mm
18:27 39.7 °F /  4.3 °C 37.4 °F /  3.0 °C 30.4 in /  1027.7 hPa NNW 1 mph /  1.6 km/h 5 mph /  8.0 km/h 91 % 0 in /  0.0 mm
18:32 39.7 °F /  4.3 °C 37.4 °F /  3.0 °C 30.4 in /  1027.7 hPa NNW 2 mph /  3.2 km/h 5 mph /  8.0 km/h 91 % 0 in /  0.0 mm
18:37 39.6 °F /  4.2 °C 37.2 °F /  2.9 °C 30.4 in /  1027.7 hPa NNW 3 mph /  4.8 km/h 6 mph /  9.7 km/h 91 % 0 in /  0.0 mm
18:47 39.6 °F /  4.2 °C 37.2 °F /  2.9 °C 30.4 in /  1027.7 hPa NW 3 mph /  4.8 km/h 7 mph /  11.3 km/h 91 % 0 in /  0.0 mm
18:52 39.4 °F /  4.1 °C 37 °F /  2.8 °C 30.4 in /  1027.7 hPa North 4 mph /  6.4 km/h 7 mph /  11.3 km/h 91 % 0 in /  0.0 mm
18:57 39.4 °F /  4.1 °C 37 °F /  2.8 °C 30.4 in /  1028.0 hPa NW 2 mph /  3.2 km/h 6 mph /  9.7 km/h 91 % 0 in /  0.0 mm
19:02 39.4 °F /  4.1 °C 37.2 °F /  2.9 °C 30.4 in /  1028.0 hPa North 3 mph /  4.8 km/h 7 mph /  11.3 km/h 92 % 0 in /  0.0 mm
19:12 39 °F /  3.9 °C 36.7 °F /  2.6 °C 30.4 in /  1028.0 hPa NW 2 mph /  3.2 km/h 7 mph /  11.3 km/h 91 % 0 in /  0.0 mm
19:17 39 °F /  3.9 °C 36.7 °F /  2.6 °C 30.4 in /  1028.0 hPa North 3 mph /  4.8 km/h 6 mph /  9.7 km/h 91 % 0 in /  0.0 mm
19:22 39 °F /  3.9 °C 36.7 °F /  2.6 °C 30.4 in /  1028.0 hPa NNW 3 mph /  4.8 km/h 5 mph /  8.0 km/h 91 % 0 in /  0.0 mm
19:27 38.8 °F /  3.8 °C 36.5 °F /  2.5 °C 30.4 in /  1028.0 hPa North 4 mph /  6.4 km/h 5 mph /  8.0 km/h 91 % 0 in /  0.0 mm
19:42 38.1 °F /  3.4 °C 36 °F /  2.2 °C 30.4 in /  1028.0 hPa NNE 1 mph /  1.6 km/h 4 mph /  6.4 km/h 92 % 0 in /  0.0 mm
19:52 37.8 °F /  3.2 °C 35.6 °F /  2.0 °C 30.4 in /  1028.0 hPa Calm   4 mph /  6.4 km/h 92 % 0 in /  0.0 mm
20:02 37.4 °F /  3.0 °C 35.2 °F /  1.8 °C 30.4 in /  1028.0 hPa Calm   3 mph /  4.8 km/h 92 % 0 in /  0.0 mm
20:12 37 °F /  2.8 °C 35.2 °F /  1.8 °C 30.4 in /  1028.0 hPa Calm   1 mph /  1.6 km/h 93 % 0 in /  0.0 mm
20:22 37 °F /  2.8 °C 35.2 °F /  1.8 °C 30.4 in /  1028.0 hPa Calm   1 mph /  1.6 km/h 93 % 0 in /  0.0 mm
20:27 36.9 °F /  2.7 °C 35.1 °F /  1.7 °C 30.4 in /  1028.3 hPa Calm   1 mph /  1.6 km/h 93 % 0 in /  0.0 mm
20:32 36.5 °F /  2.5 °C 34.7 °F /  1.5 °C 30.4 in /  1028.3 hPa Calm   1 mph /  1.6 km/h 93 % 0 in /  0.0 mm
20:42 36.3 °F /  2.4 °C 34.7 °F /  1.5 °C 30.4 in /  1028.3 hPa NW 1 mph /  1.6 km/h   94 % 0 in /  0.0 mm
20:47 36.5 °F /  2.5 °C 35.2 °F /  1.8 °C 30.4 in /  1028.3 hPa NW 1 mph /  1.6 km/h 1 mph /  1.6 km/h 95 % 0 in /  0.0 mm
20:52 36.7 °F /  2.6 °C 35.1 °F /  1.7 °C 30.4 in /  1028.3 hPa NW 1 mph /  1.6 km/h 1 mph /  1.6 km/h 94 % 0 in /  0.0 mm
20:57 36.7 °F /  2.6 °C 35.1 °F /  1.7 °C 30.4 in /  1028.3 hPa Calm   1 mph /  1.6 km/h 94 % 0 in /  0.0 mm
21:02 36.3 °F /  2.4 °C 34.7 °F /  1.5 °C 30.4 in /  1028.3 hPa Calm   1 mph /  1.6 km/h 94 % 0 in /  0.0 mm
21:12 35.6 °F /  2.0 °C 34 °F /  1.1 °C 30.4 in /  1028.3 hPa Calm   1 mph /  1.6 km/h 94 % 0 in /  0.0 mm
21:17 36 °F /  2.2 °C 34.7 °F /  1.5 °C 30.4 in /  1028.3 hPa Calm     95 % 0 in /  0.0 mm
21:27 36 °F /  2.2 °C 34.7 °F /  1.5 °C 30.4 in /  1028.3 hPa Calm   1 mph /  1.6 km/h 95 % 0 in /  0.0 mm
21:32 35.8 °F /  2.1 °C 34.2 °F /  1.2 °C 30.4 in /  1028.3 hPa Calm   1 mph /  1.6 km/h 94 % 0 in /  0.0 mm
21:37 35.4 °F /  1.9 °C 33.8 °F /  1.0 °C 30.4 in /  1028.3 hPa NW 1 mph /  1.6 km/h 1 mph /  1.6 km/h 94 % 0 in /  0.0 mm
21:42 35.2 °F /  1.8 °C 34 °F /  1.1 °C 30.4 in /  1028.0 hPa Calm   1 mph /  1.6 km/h 95 % 0 in /  0.0 mm
21:47 35.2 °F /  1.8 °C 34 °F /  1.1 °C 30.4 in /  1028.0 hPa Calm   1 mph /  1.6 km/h 95 % 0 in /  0.0 mm
21:52 35.2 °F /  1.8 °C 34 °F /  1.1 °C 30.4 in /  1028.3 hPa NW 1 mph /  1.6 km/h 1 mph /  1.6 km/h 95 % 0 in /  0.0 mm
22:02 35.1 °F /  1.7 °C 33.8 °F /  1.0 °C 30.4 in /  1028.0 hPa NW 1 mph /  1.6 km/h 1 mph /  1.6 km/h 95 % 0 in /  0.0 mm
22:07 34.9 °F /  1.6 °C 33.6 °F /  0.9 °C 30.4 in /  1028.0 hPa Calm   2 mph /  3.2 km/h 95 % 0 in /  0.0 mm
22:12 34.9 °F /  1.6 °C 33.6 °F /  0.9 °C 30.4 in /  1028.0 hPa Calm   2 mph /  3.2 km/h 95 % 0 in /  0.0 mm
22:17 34.9 °F /  1.6 °C 33.6 °F /  0.9 °C 30.4 in /  1028.0 hPa Calm   2 mph /  3.2 km/h 95 % 0 in /  0.0 mm
22:22 34.7 °F /  1.5 °C 33.4 °F /  0.8 °C 30.4 in /  1028.0 hPa Calm   1 mph /  1.6 km/h 95 % 0 in /  0.0 mm
22:27 34.9 °F /  1.6 °C 33.8 °F /  1.0 °C 30.4 in /  1028.3 hPa NNW 1 mph /  1.6 km/h 1 mph /  1.6 km/h 96 % 0 in /  0.0 mm
22:32 34.9 °F /  1.6 °C 33.8 °F /  1.0 °C 30.4 in /  1028.3 hPa NNE 1 mph /  1.6 km/h 1 mph /  1.6 km/h 96 % 0 in /  0.0 mm
22:37 35.2 °F /  1.8 °C 34.2 °F /  1.2 °C 30.4 in /  1028.0 hPa NE 1 mph /  1.6 km/h 1 mph /  1.6 km/h 96 % 0 in /  0.0 mm
22:42 35.4 °F /  1.9 °C 34.3 °F /  1.3 °C 30.4 in /  1028.3 hPa NE 1 mph /  1.6 km/h 1 mph /  1.6 km/h 96 % 0 in /  0.0 mm
22:47 35.8 °F /  2.1 °C 34.7 °F /  1.5 °C 30.4 in /  1028.0 hPa NE 1 mph /  1.6 km/h 2 mph /  3.2 km/h 96 % 0 in /  0.0 mm
22:57 36 °F /  2.2 °C 34.9 °F /  1.6 °C 30.4 in /  1028.3 hPa Calm   3 mph /  4.8 km/h 96 % 0 in /  0.0 mm
23:02 36 °F /  2.2 °C 34.9 °F /  1.6 °C 30.4 in /  1028.0 hPa Calm   3 mph /  4.8 km/h 96 % 0 in /  0.0 mm
23:12 35.8 °F /  2.1 °C 34.7 °F /  1.5 °C 30.4 in /  1028.0 hPa NNE 1 mph /  1.6 km/h 1 mph /  1.6 km/h 96 % 0 in /  0.0 mm
23:17 35.8 °F /  2.1 °C 34.7 °F /  1.5 °C 30.4 in /  1028.0 hPa NNE 2 mph /  3.2 km/h 2 mph /  3.2 km/h 96 % 0 in /  0.0 mm
23:22 35.8 °F /  2.1 °C 34.7 °F /  1.5 °C 30.4 in /  1028.0 hPa NNW 1 mph /  1.6 km/h 2 mph /  3.2 km/h 96 % 0 in /  0.0 mm
23:27 35.6 °F /  2.0 °C 34.5 °F /  1.4 °C 30.4 in /  1028.0 hPa Calm   3 mph /  4.8 km/h 96 % 0 in /  0.0 mm
23:32 35.4 °F /  1.9 °C 34.3 °F /  1.3 °C 30.4 in /  1028.0 hPa Calm   3 mph /  4.8 km/h 96 % 0 in /  0.0 mm
23:37 35.2 °F /  1.8 °C 34.2 °F /  1.2 °C 30.4 in /  1028.0 hPa NE 1 mph /  1.6 km/h 3 mph /  4.8 km/h 96 % 0 in /  0.0 mm
23:42 35.2 °F /  1.8 °C 34.2 °F /  1.2 °C 30.4 in /  1028.0 hPa NNE 2 mph /  3.2 km/h 2 mph /  3.2 km/h 96 % 0 in /  0.0 mm
23:47 35.1 °F /  1.7 °C 34 °F /  1.1 °C 30.4 in /  1028.0 hPa Calm   3 mph /  4.8 km/h 96 % 0 in /  0.0 mm
23:52 35.1 °F /  1.7 °C 34 °F /  1.1 °C 30.4 in /  1028.0 hPa NNE 2 mph /  3.2 km/h 3 mph /  4.8 km/h 96 % 0 in /  0.0 mm
23:57 34.9 °F /  1.6 °C 33.8 °F /  1.0 °C 30.4 in /  1028.0 hPa NNW 1 mph /  1.6 km/h 3 mph /  4.8 km/h 96 % 0 in /  0.0 mm
Meteo18
Compliments of Weather Underground - 4 mb

Script developed by  Jim McMurry - jmcmurry@mwt.net Adapted for the template by  Wim van der Kuil - Leuven-Template.eu

You find our weather info also at:

European Weather Network

Weather Underground

Equipment we use:

Weather-station
Davis Vue

Weather-program
Meteohub

Weather-server
Raspberry PI 2 B+

Provider
1 and 1

Davis Vue

Meteohub

Raspberry PI 2 B+

1 and 1